sensor_id;sensor_type;location;lat;lon;timestamp;P1;durP1;ratioP1;P2;durP2;ratioP2
69323;SDS011;56470;47.350;8.718;2023-12-14T02:18:56;1.77;;;1.07;;
69323;SDS011;56470;47.350;8.718;2023-12-14T02:25:58;2.45;;;1.40;;
69323;SDS011;56470;47.350;8.718;2023-12-14T02:44:43;1.80;;;0.80;;
69323;SDS011;56470;47.350;8.718;2023-12-14T03:06:24;1.38;;;1.02;;
69323;SDS011;56470;47.350;8.718;2023-12-14T03:27:13;1.43;;;0.73;;
69323;SDS011;56470;47.350;8.718;2023-12-14T04:07:04;2.60;;;0.93;;
69323;SDS011;56470;47.350;8.718;2023-12-14T04:16:22;1.77;;;1.15;;
69323;SDS011;56470;47.350;8.718;2023-12-14T04:47:13;2.13;;;1.20;;
69323;SDS011;56470;47.350;8.718;2023-12-14T04:50:27;1.90;;;0.98;;
69323;SDS011;56470;47.350;8.718;2023-12-14T04:53:41;2.80;;;1.45;;
69323;SDS011;56470;47.350;8.718;2023-12-14T05:02:45;2.93;;;1.30;;
69323;SDS011;56470;47.350;8.718;2023-12-14T05:05:37;1.60;;;1.00;;
69323;SDS011;56470;47.350;8.718;2023-12-14T05:08:29;2.50;;;1.35;;
69323;SDS011;56470;47.350;8.718;2023-12-14T05:20:35;1.67;;;0.95;;
69323;SDS011;56470;47.350;8.718;2023-12-14T05:23:24;2.38;;;1.30;;
69323;SDS011;56470;47.350;8.718;2023-12-14T05:25:49;2.30;;;1.30;;
69323;SDS011;56470;47.350;8.718;2023-12-14T05:28:15;2.55;;;1.42;;
69323;SDS011;56470;47.350;8.718;2023-12-14T05:30:40;2.07;;;1.23;;
69323;SDS011;56470;47.350;8.718;2023-12-14T05:33:06;2.15;;;1.35;;
69323;SDS011;56470;47.350;8.718;2023-12-14T05:35:36;2.58;;;1.55;;
69323;SDS011;56470;47.350;8.718;2023-12-14T05:38:04;2.88;;;1.70;;
69323;SDS011;56470;47.350;8.718;2023-12-14T05:40:37;3.08;;;1.42;;
69323;SDS011;56470;47.350;8.718;2023-12-14T05:43:02;3.50;;;1.73;;
69323;SDS011;56470;47.350;8.718;2023-12-14T05:45:28;3.07;;;1.90;;
69323;SDS011;56470;47.350;8.718;2023-12-14T05:47:54;2.60;;;1.60;;
69323;SDS011;56470;47.350;8.718;2023-12-14T05:50:19;2.93;;;1.80;;
69323;SDS011;56470;47.350;8.718;2023-12-14T05:52:44;3.13;;;1.90;;
69323;SDS011;56470;47.350;8.718;2023-12-14T05:55:11;4.00;;;2.00;;
69323;SDS011;56470;47.350;8.718;2023-12-14T05:57:36;2.63;;;1.80;;
69323;SDS011;56470;47.350;8.718;2023-12-14T06:00:02;3.10;;;1.93;;
69323;SDS011;56470;47.350;8.718;2023-12-14T06:02:30;4.10;;;1.83;;
69323;SDS011;56470;47.350;8.718;2023-12-14T06:04:59;3.00;;;1.88;;
69323;SDS011;56470;47.350;8.718;2023-12-14T06:07:34;2.70;;;1.42;;
69323;SDS011;56470;47.350;8.718;2023-12-14T06:10:11;3.45;;;2.08;;
69323;SDS011;56470;47.350;8.718;2023-12-14T06:12:42;3.13;;;1.60;;
69323;SDS011;56470;47.350;8.718;2023-12-14T06:15:17;3.22;;;2.03;;
69323;SDS011;56470;47.350;8.718;2023-12-14T06:17:42;4.03;;;1.75;;
69323;SDS011;56470;47.350;8.718;2023-12-14T06:20:08;3.10;;;1.80;;
69323;SDS011;56470;47.350;8.718;2023-12-14T06:22:37;3.28;;;1.90;;
69323;SDS011;56470;47.350;8.718;2023-12-14T06:25:05;3.30;;;1.90;;
69323;SDS011;56470;47.350;8.718;2023-12-14T06:27:31;3.53;;;2.20;;
69323;SDS011;56470;47.350;8.718;2023-12-14T06:29:59;6.30;;;2.00;;
69323;SDS011;56470;47.350;8.718;2023-12-14T06:32:37;4.50;;;2.20;;
69323;SDS011;56470;47.350;8.718;2023-12-14T06:35:02;3.17;;;1.95;;
69323;SDS011;56470;47.350;8.718;2023-12-14T06:37:37;3.90;;;1.95;;
69323;SDS011;56470;47.350;8.718;2023-12-14T06:40:03;4.00;;;1.97;;
69323;SDS011;56470;47.350;8.718;2023-12-14T06:42:38;2.80;;;1.40;;
69323;SDS011;56470;47.350;8.718;2023-12-14T06:45:04;3.63;;;2.20;;
69323;SDS011;56470;47.350;8.718;2023-12-14T06:47:30;3.30;;;2.20;;
69323;SDS011;56470;47.350;8.718;2023-12-14T06:50:03;3.75;;;2.42;;
69323;SDS011;56470;47.350;8.718;2023-12-14T06:52:30;3.65;;;2.22;;
69323;SDS011;56470;47.350;8.718;2023-12-14T06:54:56;3.03;;;2.00;;
69323;SDS011;56470;47.350;8.718;2023-12-14T06:57:21;4.40;;;2.07;;
69323;SDS011;56470;47.350;8.718;2023-12-14T06:59:46;4.22;;;2.30;;
69323;SDS011;56470;47.350;8.718;2023-12-14T07:02:12;4.13;;;2.00;;
69323;SDS011;56470;47.350;8.718;2023-12-14T07:04:37;3.07;;;1.80;;
69323;SDS011;56470;47.350;8.718;2023-12-14T07:07:02;3.20;;;1.90;;
69323;SDS011;56470;47.350;8.718;2023-12-14T07:09:28;3.38;;;1.90;;
69323;SDS011;56470;47.350;8.718;2023-12-14T07:11:54;3.30;;;1.93;;
69323;SDS011;56470;47.350;8.718;2023-12-14T07:14:19;3.93;;;2.37;;
69323;SDS011;56470;47.350;8.718;2023-12-14T07:16:44;4.37;;;2.40;;
69323;SDS011;56470;47.350;8.718;2023-12-14T07:19:12;4.33;;;2.33;;
69323;SDS011;56470;47.350;8.718;2023-12-14T07:21:38;3.50;;;2.00;;
69323;SDS011;56470;47.350;8.718;2023-12-14T07:24:06;4.10;;;2.38;;
69323;SDS011;56470;47.350;8.718;2023-12-14T07:26:34;5.63;;;2.60;;
69323;SDS011;56470;47.350;8.718;2023-12-14T07:28:59;4.88;;;2.90;;
69323;SDS011;56470;47.350;8.718;2023-12-14T07:31:24;4.07;;;2.70;;
69323;SDS011;56470;47.350;8.718;2023-12-14T07:33:50;4.47;;;2.53;;
69323;SDS011;56470;47.350;8.718;2023-12-14T07:36:15;4.30;;;2.50;;
69323;SDS011;56470;47.350;8.718;2023-12-14T07:38:48;5.22;;;2.75;;
69323;SDS011;56470;47.350;8.718;2023-12-14T07:41:13;4.77;;;2.87;;
69323;SDS011;56470;47.350;8.718;2023-12-14T07:43:39;6.00;;;3.00;;
69323;SDS011;56470;47.350;8.718;2023-12-14T07:46:14;5.03;;;2.97;;
69323;SDS011;56470;47.350;8.718;2023-12-14T07:48:42;6.63;;;2.58;;
69323;SDS011;56470;47.350;8.718;2023-12-14T07:51:12;6.10;;;3.03;;
69323;SDS011;56470;47.350;8.718;2023-12-14T07:53:38;5.15;;;2.75;;
69323;SDS011;56470;47.350;8.718;2023-12-14T07:56:06;4.82;;;2.58;;
69323;SDS011;56470;47.350;8.718;2023-12-14T07:58:31;9.63;;;3.17;;
69323;SDS011;56470;47.350;8.718;2023-12-14T08:00:57;4.60;;;2.72;;
69323;SDS011;56470;47.350;8.718;2023-12-14T08:03:22;4.80;;;2.67;;
69323;SDS011;56470;47.350;8.718;2023-12-14T08:05:50;5.05;;;3.03;;
69323;SDS011;56470;47.350;8.718;2023-12-14T08:08:16;4.87;;;2.57;;
69323;SDS011;56470;47.350;8.718;2023-12-14T08:10:41;5.95;;;2.97;;
69323;SDS011;56470;47.350;8.718;2023-12-14T08:13:15;5.83;;;3.20;;
69323;SDS011;56470;47.350;8.718;2023-12-14T08:15:40;5.03;;;2.92;;
69323;SDS011;56470;47.350;8.718;2023-12-14T08:18:06;5.63;;;2.87;;
69323;SDS011;56470;47.350;8.718;2023-12-14T08:20:32;4.25;;;2.65;;
69323;SDS011;56470;47.350;8.718;2023-12-14T08:23:03;5.28;;;3.08;;
69323;SDS011;56470;47.350;8.718;2023-12-14T08:25:32;4.38;;;2.60;;
69323;SDS011;56470;47.350;8.718;2023-12-14T08:27:57;4.53;;;2.60;;
69323;SDS011;56470;47.350;8.718;2023-12-14T08:30:25;4.80;;;2.88;;
69323;SDS011;56470;47.350;8.718;2023-12-14T08:32:51;5.77;;;3.30;;
69323;SDS011;56470;47.350;8.718;2023-12-14T08:35:22;5.13;;;3.07;;
69323;SDS011;56470;47.350;8.718;2023-12-14T08:37:50;5.05;;;2.88;;
69323;SDS011;56470;47.350;8.718;2023-12-14T08:40:20;6.28;;;3.35;;
69323;SDS011;56470;47.350;8.718;2023-12-14T08:42:56;4.80;;;2.78;;
69323;SDS011;56470;47.350;8.718;2023-12-14T08:45:22;5.10;;;2.65;;
69323;SDS011;56470;47.350;8.718;2023-12-14T08:47:53;4.03;;;2.20;;
69323;SDS011;56470;47.350;8.718;2023-12-14T08:50:21;4.40;;;1.95;;
69323;SDS011;56470;47.350;8.718;2023-12-14T08:53:00;4.97;;;2.45;;
69323;SDS011;56470;47.350;8.718;2023-12-14T08:55:29;3.97;;;1.90;;
69323;SDS011;56470;47.350;8.718;2023-12-14T08:57:55;5.00;;;2.63;;
69323;SDS011;56470;47.350;8.718;2023-12-14T09:00:26;4.15;;;2.00;;
69323;SDS011;56470;47.350;8.718;2023-12-14T09:02:57;4.40;;;2.67;;
69323;SDS011;56470;47.350;8.718;2023-12-14T09:05:25;5.50;;;2.10;;
69323;SDS011;56470;47.350;8.718;2023-12-14T09:07:55;3.35;;;2.17;;
69323;SDS011;56470;47.350;8.718;2023-12-14T09:10:23;3.17;;;2.00;;
69323;SDS011;56470;47.350;8.718;2023-12-14T09:13:01;3.83;;;2.40;;
69323;SDS011;56470;47.350;8.718;2023-12-14T09:15:45;4.20;;;2.30;;
69323;SDS011;56470;47.350;8.718;2023-12-14T09:18:21;4.43;;;2.27;;
69323;SDS011;56470;47.350;8.718;2023-12-14T09:20:58;3.78;;;2.17;;
69323;SDS011;56470;47.350;8.718;2023-12-14T09:23:34;3.25;;;1.85;;
69323;SDS011;56470;47.350;8.718;2023-12-14T09:26:21;4.45;;;1.98;;
69323;SDS011;56470;47.350;8.718;2023-12-14T09:29:00;3.90;;;1.60;;
69323;SDS011;56470;47.350;8.718;2023-12-14T09:31:43;3.77;;;1.70;;
69323;SDS011;56470;47.350;8.718;2023-12-14T09:34:32;3.67;;;1.85;;
69323;SDS011;56470;47.350;8.718;2023-12-14T09:37:05;3.88;;;2.00;;
69323;SDS011;56470;47.350;8.718;2023-12-14T09:39:43;3.90;;;1.83;;
69323;SDS011;56470;47.350;8.718;2023-12-14T09:45:07;3.63;;;1.50;;
69323;SDS011;56470;47.350;8.718;2023-12-14T09:47:41;3.78;;;1.55;;
69323;SDS011;56470;47.350;8.718;2023-12-14T09:50:26;3.58;;;1.50;;
69323;SDS011;56470;47.350;8.718;2023-12-14T09:55:47;2.55;;;1.48;;
69323;SDS011;56470;47.350;8.718;2023-12-14T09:58:22;3.43;;;1.83;;
69323;SDS011;56470;47.350;8.718;2023-12-14T10:00:53;3.38;;;2.00;;
69323;SDS011;56470;47.350;8.718;2023-12-14T10:03:25;3.00;;;1.60;;
69323;SDS011;56470;47.350;8.718;2023-12-14T10:06:08;3.40;;;2.03;;
69323;SDS011;56470;47.350;8.718;2023-12-14T10:08:36;2.57;;;1.40;;
69323;SDS011;56470;47.350;8.718;2023-12-14T10:11:05;2.83;;;1.30;;
69323;SDS011;56470;47.350;8.718;2023-12-14T10:13:40;2.17;;;1.60;;
69323;SDS011;56470;47.350;8.718;2023-12-14T10:16:08;3.00;;;1.90;;
69323;SDS011;56470;47.350;8.718;2023-12-14T10:18:33;3.03;;;1.38;;
69323;SDS011;56470;47.350;8.718;2023-12-14T10:20:59;4.03;;;1.90;;
69323;SDS011;56470;47.350;8.718;2023-12-14T10:23:26;3.30;;;1.77;;
69323;SDS011;56470;47.350;8.718;2023-12-14T10:25:55;2.45;;;1.58;;
69323;SDS011;56470;47.350;8.718;2023-12-14T10:28:21;3.00;;;1.40;;
69323;SDS011;56470;47.350;8.718;2023-12-14T10:30:49;3.03;;;1.77;;
69323;SDS011;56470;47.350;8.718;2023-12-14T10:33:15;2.88;;;1.65;;
69323;SDS011;56470;47.350;8.718;2023-12-14T10:35:41;2.80;;;1.30;;
69323;SDS011;56470;47.350;8.718;2023-12-14T10:38:07;2.73;;;1.40;;
69323;SDS011;56470;47.350;8.718;2023-12-14T10:40:34;2.83;;;1.20;;
69323;SDS011;56470;47.350;8.718;2023-12-14T10:43:05;2.17;;;1.25;;
69323;SDS011;56470;47.350;8.718;2023-12-14T10:45:34;4.43;;;1.25;;
69323;SDS011;56470;47.350;8.718;2023-12-14T10:48:00;3.50;;;1.83;;
69323;SDS011;56470;47.350;8.718;2023-12-14T10:50:29;3.60;;;1.67;;
69323;SDS011;56470;47.350;8.718;2023-12-14T10:52:55;9.98;;;3.88;;
69323;SDS011;56470;47.350;8.718;2023-12-14T10:55:40;3.60;;;2.00;;
69323;SDS011;56470;47.350;8.718;2023-12-14T10:58:10;5.22;;;2.20;;
69323;SDS011;56470;47.350;8.718;2023-12-14T11:00:36;3.00;;;1.52;;
69323;SDS011;56470;47.350;8.718;2023-12-14T11:03:05;4.83;;;2.20;;
69323;SDS011;56470;47.350;8.718;2023-12-14T11:05:34;3.05;;;1.48;;
69323;SDS011;56470;47.350;8.718;2023-12-14T11:08:00;3.97;;;1.60;;
69323;SDS011;56470;47.350;8.718;2023-12-14T11:10:38;3.35;;;1.73;;
69323;SDS011;56470;47.350;8.718;2023-12-14T11:13:08;3.53;;;1.92;;
69323;SDS011;56470;47.350;8.718;2023-12-14T11:15:48;3.37;;;2.13;;
69323;SDS011;56470;47.350;8.718;2023-12-14T11:23:10;3.33;;;1.95;;
69323;SDS011;56470;47.350;8.718;2023-12-14T11:25:38;5.80;;;2.33;;
69323;SDS011;56470;47.350;8.718;2023-12-14T11:28:07;3.95;;;2.40;;
69323;SDS011;56470;47.350;8.718;2023-12-14T11:30:33;4.25;;;2.20;;
69323;SDS011;56470;47.350;8.718;2023-12-14T11:33:00;5.18;;;2.15;;
69323;SDS011;56470;47.350;8.718;2023-12-14T11:35:25;4.13;;;2.50;;
69323;SDS011;56470;47.350;8.718;2023-12-14T11:37:53;4.78;;;1.90;;
69323;SDS011;56470;47.350;8.718;2023-12-14T11:40:18;5.47;;;2.43;;
69323;SDS011;56470;47.350;8.718;2023-12-14T11:43:00;4.88;;;2.67;;
69323;SDS011;56470;47.350;8.718;2023-12-14T11:45:33;3.67;;;2.05;;
69323;SDS011;56470;47.350;8.718;2023-12-14T11:47:59;4.45;;;2.28;;
69323;SDS011;56470;47.350;8.718;2023-12-14T11:50:26;4.33;;;1.90;;
69323;SDS011;56470;47.350;8.718;2023-12-14T11:52:52;3.85;;;2.00;;
69323;SDS011;56470;47.350;8.718;2023-12-14T11:55:18;2.60;;;1.30;;
69323;SDS011;56470;47.350;8.718;2023-12-14T11:57:46;3.33;;;1.75;;
69323;SDS011;56470;47.350;8.718;2023-12-14T12:00:11;4.43;;;1.95;;
69323;SDS011;56470;47.350;8.718;2023-12-14T12:02:38;3.45;;;1.95;;
69323;SDS011;56470;47.350;8.718;2023-12-14T12:05:05;4.63;;;1.85;;
69323;SDS011;56470;47.350;8.718;2023-12-14T12:07:31;5.40;;;1.93;;
69323;SDS011;56470;47.350;8.718;2023-12-14T12:09:57;6.35;;;2.88;;
69323;SDS011;56470;47.350;8.718;2023-12-14T12:12:23;4.68;;;1.98;;
69323;SDS011;56470;47.350;8.718;2023-12-14T12:14:48;4.50;;;2.70;;
69323;SDS011;56470;47.350;8.718;2023-12-14T12:17:17;3.83;;;2.05;;
69323;SDS011;56470;47.350;8.718;2023-12-14T12:19:44;3.90;;;2.23;;
69323;SDS011;56470;47.350;8.718;2023-12-14T12:22:10;3.65;;;2.20;;
69323;SDS011;56470;47.350;8.718;2023-12-14T12:24:35;2.67;;;1.57;;
69323;SDS011;56470;47.350;8.718;2023-12-14T12:27:01;4.20;;;1.87;;
69323;SDS011;56470;47.350;8.718;2023-12-14T12:29:26;4.47;;;1.80;;
69323;SDS011;56470;47.350;8.718;2023-12-14T12:31:52;4.73;;;1.90;;
69323;SDS011;56470;47.350;8.718;2023-12-14T12:34:17;6.10;;;2.00;;
69323;SDS011;56470;47.350;8.718;2023-12-14T12:36:43;3.55;;;1.75;;
69323;SDS011;56470;47.350;8.718;2023-12-14T12:39:08;2.97;;;1.80;;
69323;SDS011;56470;47.350;8.718;2023-12-14T12:41:34;3.73;;;1.90;;
69323;SDS011;56470;47.350;8.718;2023-12-14T12:44:02;3.38;;;1.77;;
69323;SDS011;56470;47.350;8.718;2023-12-14T12:49:14;2.60;;;1.65;;
69323;SDS011;56470;47.350;8.718;2023-12-14T12:51:40;4.60;;;2.30;;
69323;SDS011;56470;47.350;8.718;2023-12-14T12:54:05;4.70;;;2.43;;
69323;SDS011;56470;47.350;8.718;2023-12-14T12:56:30;4.28;;;2.17;;
69323;SDS011;56470;47.350;8.718;2023-12-14T12:58:56;4.87;;;2.47;;
69323;SDS011;56470;47.350;8.718;2023-12-14T13:01:21;2.67;;;1.67;;
69323;SDS011;56470;47.350;8.718;2023-12-14T13:03:52;4.07;;;1.83;;
69323;SDS011;56470;47.350;8.718;2023-12-14T13:06:19;4.35;;;1.70;;
69323;SDS011;56470;47.350;8.718;2023-12-14T13:08:46;2.33;;;1.30;;
69323;SDS011;56470;47.350;8.718;2023-12-14T13:11:11;3.20;;;1.80;;
69323;SDS011;56470;47.350;8.718;2023-12-14T13:13:37;3.67;;;1.80;;
69323;SDS011;56470;47.350;8.718;2023-12-14T13:16:02;4.30;;;2.03;;
69323;SDS011;56470;47.350;8.718;2023-12-14T13:18:28;2.55;;;1.58;;
69323;SDS011;56470;47.350;8.718;2023-12-14T13:20:53;3.07;;;1.97;;
69323;SDS011;56470;47.350;8.718;2023-12-14T13:23:18;3.63;;;1.70;;
69323;SDS011;56470;47.350;8.718;2023-12-14T13:25:44;2.77;;;1.60;;
69323;SDS011;56470;47.350;8.718;2023-12-14T13:28:09;3.30;;;2.15;;
69323;SDS011;56470;47.350;8.718;2023-12-14T13:30:35;3.87;;;1.90;;
69323;SDS011;56470;47.350;8.718;2023-12-14T13:33:00;3.40;;;1.90;;
69323;SDS011;56470;47.350;8.718;2023-12-14T13:35:26;3.08;;;1.70;;
69323;SDS011;56470;47.350;8.718;2023-12-14T13:37:52;3.27;;;2.00;;
69323;SDS011;56470;47.350;8.718;2023-12-14T13:40:18;5.35;;;2.20;;
69323;SDS011;56470;47.350;8.718;2023-12-14T13:42:43;3.07;;;2.07;;
69323;SDS011;56470;47.350;8.718;2023-12-14T13:45:09;3.10;;;1.60;;
69323;SDS011;56470;47.350;8.718;2023-12-14T13:47:35;3.22;;;1.90;;
69323;SDS011;56470;47.350;8.718;2023-12-14T13:50:00;3.77;;;2.00;;
69323;SDS011;56470;47.350;8.718;2023-12-14T13:52:25;3.97;;;2.00;;
69323;SDS011;56470;47.350;8.718;2023-12-14T13:54:51;3.80;;;1.80;;
69323;SDS011;56470;47.350;8.718;2023-12-14T13:57:16;3.10;;;1.55;;
69323;SDS011;56470;47.350;8.718;2023-12-14T13:59:42;3.73;;;1.83;;
69323;SDS011;56470;47.350;8.718;2023-12-14T14:02:07;3.00;;;2.07;;
69323;SDS011;56470;47.350;8.718;2023-12-14T14:04:32;3.97;;;2.20;;
69323;SDS011;56470;47.350;8.718;2023-12-14T14:06:58;3.83;;;1.80;;
69323;SDS011;56470;47.350;8.718;2023-12-14T14:09:23;2.37;;;1.40;;
69323;SDS011;56470;47.350;8.718;2023-12-14T14:11:49;2.50;;;1.60;;
69323;SDS011;56470;47.350;8.718;2023-12-14T14:14:15;2.38;;;1.67;;
69323;SDS011;56470;47.350;8.718;2023-12-14T14:16:41;2.47;;;1.52;;
69323;SDS011;56470;47.350;8.718;2023-12-14T14:19:06;3.50;;;1.70;;
69323;SDS011;56470;47.350;8.718;2023-12-14T14:21:31;2.90;;;1.60;;
69323;SDS011;56470;47.350;8.718;2023-12-14T14:23:57;2.70;;;1.67;;
69323;SDS011;56470;47.350;8.718;2023-12-14T14:26:24;2.50;;;1.50;;
69323;SDS011;56470;47.350;8.718;2023-12-14T14:28:49;2.60;;;2.05;;
69323;SDS011;56470;47.350;8.718;2023-12-14T14:31:14;2.87;;;1.33;;
69323;SDS011;56470;47.350;8.718;2023-12-14T14:33:40;5.07;;;2.45;;
69323;SDS011;56470;47.350;8.718;2023-12-14T14:36:05;4.80;;;2.20;;
69323;SDS011;56470;47.350;8.718;2023-12-14T14:38:32;3.28;;;2.00;;
69323;SDS011;56470;47.350;8.718;2023-12-14T14:40:58;4.43;;;1.83;;
69323;SDS011;56470;47.350;8.718;2023-12-14T14:43:23;4.33;;;1.97;;
69323;SDS011;56470;47.350;8.718;2023-12-14T14:45:49;3.35;;;2.08;;
69323;SDS011;56470;47.350;8.718;2023-12-14T14:48:14;3.43;;;1.90;;
69323;SDS011;56470;47.350;8.718;2023-12-14T14:50:40;3.30;;;1.67;;
69323;SDS011;56470;47.350;8.718;2023-12-14T14:53:05;2.77;;;1.63;;
69323;SDS011;56470;47.350;8.718;2023-12-14T14:55:30;2.93;;;1.90;;
69323;SDS011;56470;47.350;8.718;2023-12-14T14:57:56;2.20;;;1.60;;
69323;SDS011;56470;47.350;8.718;2023-12-14T15:00:21;4.57;;;1.90;;
69323;SDS011;56470;47.350;8.718;2023-12-14T15:02:48;2.88;;;1.60;;
69323;SDS011;56470;47.350;8.718;2023-12-14T15:05:14;3.90;;;1.63;;
69323;SDS011;56470;47.350;8.718;2023-12-14T15:07:39;3.13;;;1.45;;
69323;SDS011;56470;47.350;8.718;2023-12-14T15:10:04;4.10;;;2.00;;
69323;SDS011;56470;47.350;8.718;2023-12-14T15:12:30;3.83;;;2.05;;
69323;SDS011;56470;47.350;8.718;2023-12-14T15:14:56;3.53;;;2.27;;
69323;SDS011;56470;47.350;8.718;2023-12-14T15:17:21;2.90;;;1.60;;
69323;SDS011;56470;47.350;8.718;2023-12-14T15:19:47;2.75;;;1.65;;
69323;SDS011;56470;47.350;8.718;2023-12-14T15:22:14;3.13;;;1.40;;
69323;SDS011;56470;47.350;8.718;2023-12-14T15:24:40;3.78;;;1.63;;
69323;SDS011;56470;47.350;8.718;2023-12-14T15:27:05;5.70;;;1.93;;
69323;SDS011;56470;47.350;8.718;2023-12-14T15:29:31;3.15;;;1.42;;
69323;SDS011;56470;47.350;8.718;2023-12-14T15:31:56;3.57;;;1.70;;
69323;SDS011;56470;47.350;8.718;2023-12-14T15:34:21;3.83;;;1.83;;
69323;SDS011;56470;47.350;8.718;2023-12-14T15:36:47;4.50;;;1.80;;
69323;SDS011;56470;47.350;8.718;2023-12-14T15:39:12;4.35;;;1.85;;
69323;SDS011;56470;47.350;8.718;2023-12-14T15:41:37;3.40;;;2.13;;
69323;SDS011;56470;47.350;8.718;2023-12-14T15:44:03;2.87;;;1.97;;
69323;SDS011;56470;47.350;8.718;2023-12-14T15:46:28;4.53;;;2.70;;
69323;SDS011;56470;47.350;8.718;2023-12-14T15:48:54;4.38;;;2.30;;
69323;SDS011;56470;47.350;8.718;2023-12-14T15:51:28;5.00;;;2.27;;
69323;SDS011;56470;47.350;8.718;2023-12-14T16:09:08;2.33;;;1.40;;
69323;SDS011;56470;47.350;8.718;2023-12-14T17:10:37;2.65;;;1.38;;
69323;SDS011;56470;47.350;8.718;2023-12-14T17:19:57;2.22;;;1.50;;
69323;SDS011;56470;47.350;8.718;2023-12-14T17:22:37;3.15;;;1.77;;
69323;SDS011;56470;47.350;8.718;2023-12-14T17:25:35;2.85;;;1.70;;
69323;SDS011;56470;47.350;8.718;2023-12-14T17:28:19;2.13;;;1.03;;
69323;SDS011;56470;47.350;8.718;2023-12-14T17:30:52;2.90;;;1.40;;
69323;SDS011;56470;47.350;8.718;2023-12-14T17:33:37;3.00;;;1.50;;
69323;SDS011;56470;47.350;8.718;2023-12-14T17:36:15;2.20;;;1.40;;
69323;SDS011;56470;47.350;8.718;2023-12-14T17:38:45;3.33;;;1.75;;
69323;SDS011;56470;47.350;8.718;2023-12-14T17:41:44;3.47;;;1.57;;
69323;SDS011;56470;47.350;8.718;2023-12-14T17:44:21;4.65;;;1.58;;
69323;SDS011;56470;47.350;8.718;2023-12-14T17:46:55;2.88;;;1.42;;
69323;SDS011;56470;47.350;8.718;2023-12-14T17:49:23;4.00;;;1.80;;
69323;SDS011;56470;47.350;8.718;2023-12-14T17:51:49;3.33;;;1.90;;
69323;SDS011;56470;47.350;8.718;2023-12-14T17:54:14;2.77;;;1.27;;
69323;SDS011;56470;47.350;8.718;2023-12-14T17:56:44;2.53;;;1.35;;
69323;SDS011;56470;47.350;8.718;2023-12-14T17:59:10;2.70;;;1.80;;
69323;SDS011;56470;47.350;8.718;2023-12-14T18:01:42;2.92;;;1.65;;
69323;SDS011;56470;47.350;8.718;2023-12-14T18:04:08;3.20;;;1.90;;
69323;SDS011;56470;47.350;8.718;2023-12-14T18:09:47;4.43;;;1.88;;
69323;SDS011;56470;47.350;8.718;2023-12-14T18:12:12;3.22;;;2.10;;
69323;SDS011;56470;47.350;8.718;2023-12-14T18:14:38;2.53;;;1.50;;
69323;SDS011;56470;47.350;8.718;2023-12-14T18:17:03;3.47;;;2.23;;
69323;SDS011;56470;47.350;8.718;2023-12-14T18:19:34;3.78;;;2.00;;
69323;SDS011;56470;47.350;8.718;2023-12-14T18:21:59;4.55;;;2.97;;
69323;SDS011;56470;47.350;8.718;2023-12-14T18:24:45;4.83;;;2.93;;
69323;SDS011;56470;47.350;8.718;2023-12-14T18:27:10;5.65;;;2.70;;
69323;SDS011;56470;47.350;8.718;2023-12-14T18:29:36;4.57;;;2.70;;
69323;SDS011;56470;47.350;8.718;2023-12-14T18:32:10;4.55;;;2.15;;
69323;SDS011;56470;47.350;8.718;2023-12-14T18:34:41;4.63;;;2.50;;
69323;SDS011;56470;47.350;8.718;2023-12-14T18:37:06;5.35;;;2.65;;
69323;SDS011;56470;47.350;8.718;2023-12-14T18:39:34;5.05;;;2.58;;
69323;SDS011;56470;47.350;8.718;2023-12-14T18:42:00;5.87;;;2.80;;
69323;SDS011;56470;47.350;8.718;2023-12-14T18:44:25;5.20;;;2.30;;
69323;SDS011;56470;47.350;8.718;2023-12-14T18:46:50;3.73;;;1.93;;
69323;SDS011;56470;47.350;8.718;2023-12-14T18:49:16;3.20;;;1.80;;
69323;SDS011;56470;47.350;8.718;2023-12-14T18:51:41;3.17;;;1.90;;
69323;SDS011;56470;47.350;8.718;2023-12-14T18:54:09;2.17;;;0.90;;
69323;SDS011;56470;47.350;8.718;2023-12-14T18:56:36;1.80;;;0.80;;
69323;SDS011;56470;47.350;8.718;2023-12-14T18:59:02;2.80;;;1.70;;
69323;SDS011;56470;47.350;8.718;2023-12-14T19:01:27;6.23;;;2.00;;
69323;SDS011;56470;47.350;8.718;2023-12-14T19:03:52;8.33;;;2.47;;
69323;SDS011;56470;47.350;8.718;2023-12-14T19:06:18;5.27;;;1.87;;
69323;SDS011;56470;47.350;8.718;2023-12-14T19:08:43;2.50;;;1.27;;
69323;SDS011;56470;47.350;8.718;2023-12-14T19:11:18;3.10;;;1.55;;
69323;SDS011;56470;47.350;8.718;2023-12-14T19:13:44;3.03;;;1.50;;
69323;SDS011;56470;47.350;8.718;2023-12-14T19:16:10;2.70;;;1.40;;
69323;SDS011;56470;47.350;8.718;2023-12-14T19:18:36;2.80;;;1.35;;
69323;SDS011;56470;47.350;8.718;2023-12-14T19:21:02;4.75;;;1.60;;
69323;SDS011;56470;47.350;8.718;2023-12-14T19:23:27;3.97;;;1.40;;
69323;SDS011;56470;47.350;8.718;2023-12-14T19:25:53;2.47;;;1.60;;
69323;SDS011;56470;47.350;8.718;2023-12-14T19:28:22;3.33;;;1.90;;
69323;SDS011;56470;47.350;8.718;2023-12-14T19:30:49;3.17;;;1.80;;
69323;SDS011;56470;47.350;8.718;2023-12-14T19:33:14;2.20;;;1.07;;
69323;SDS011;56470;47.350;8.718;2023-12-14T19:35:39;3.53;;;1.80;;
69323;SDS011;56470;47.350;8.718;2023-12-14T19:38:05;3.00;;;1.53;;
69323;SDS011;56470;47.350;8.718;2023-12-14T19:40:30;3.20;;;1.50;;
69323;SDS011;56470;47.350;8.718;2023-12-14T19:42:58;3.10;;;1.43;;
69323;SDS011;56470;47.350;8.718;2023-12-14T19:45:23;4.32;;;1.77;;
69323;SDS011;56470;47.350;8.718;2023-12-14T19:47:50;3.33;;;1.57;;
69323;SDS011;56470;47.350;8.718;2023-12-14T19:50:15;6.07;;;2.33;;
69323;SDS011;56470;47.350;8.718;2023-12-14T19:52:41;6.27;;;2.10;;
69323;SDS011;56470;47.350;8.718;2023-12-14T19:55:06;5.30;;;2.07;;
69323;SDS011;56470;47.350;8.718;2023-12-14T19:57:35;3.65;;;1.85;;
69323;SDS011;56470;47.350;8.718;2023-12-14T20:00:01;3.35;;;1.45;;
69323;SDS011;56470;47.350;8.718;2023-12-14T20:02:26;4.03;;;1.87;;
69323;SDS011;56470;47.350;8.718;2023-12-14T20:04:52;3.22;;;1.33;;
69323;SDS011;56470;47.350;8.718;2023-12-14T20:07:19;2.70;;;1.70;;
69323;SDS011;56470;47.350;8.718;2023-12-14T20:09:50;3.57;;;1.73;;
69323;SDS011;56470;47.350;8.718;2023-12-14T20:12:59;3.88;;;1.67;;
69323;SDS011;56470;47.350;8.718;2023-12-14T20:15:37;4.45;;;1.52;;
69323;SDS011;56470;47.350;8.718;2023-12-14T20:18:16;4.03;;;1.90;;
69323;SDS011;56470;47.350;8.718;2023-12-14T20:21:10;3.33;;;1.95;;
69323;SDS011;56470;47.350;8.718;2023-12-14T20:24:02;7.43;;;2.60;;
69323;SDS011;56470;47.350;8.718;2023-12-14T20:26:54;4.70;;;1.83;;
69323;SDS011;56470;47.350;8.718;2023-12-14T20:29:45;4.88;;;1.95;;
69323;SDS011;56470;47.350;8.718;2023-12-14T20:32:46;3.55;;;1.92;;
69323;SDS011;56470;47.350;8.718;2023-12-14T20:35:37;3.45;;;2.00;;
69323;SDS011;56470;47.350;8.718;2023-12-14T20:38:31;4.87;;;2.03;;
69323;SDS011;56470;47.350;8.718;2023-12-14T20:44:25;3.35;;;1.90;;
69323;SDS011;56470;47.350;8.718;2023-12-14T20:47:04;4.47;;;1.77;;
69323;SDS011;56470;47.350;8.718;2023-12-14T20:49:59;4.88;;;2.58;;
69323;SDS011;56470;47.350;8.718;2023-12-14T20:52:50;4.70;;;2.13;;
69323;SDS011;56470;47.350;8.718;2023-12-14T20:55:40;3.42;;;1.92;;
69323;SDS011;56470;47.350;8.718;2023-12-14T20:58:24;4.25;;;2.20;;
69323;SDS011;56470;47.350;8.718;2023-12-14T21:18:20;6.78;;;2.63;;
69323;SDS011;56470;47.350;8.718;2023-12-14T21:24:53;4.73;;;2.23;;
69323;SDS011;56470;47.350;8.718;2023-12-14T21:31:12;4.78;;;2.72;;
69323;SDS011;56470;47.350;8.718;2023-12-14T21:33:43;4.25;;;2.13;;
69323;SDS011;56470;47.350;8.718;2023-12-14T21:36:45;4.45;;;2.50;;
69323;SDS011;56470;47.350;8.718;2023-12-14T21:39:20;5.00;;;2.70;;
69323;SDS011;56470;47.350;8.718;2023-12-14T21:41:56;5.28;;;2.63;;
69323;SDS011;56470;47.350;8.718;2023-12-14T21:44:26;4.88;;;2.72;;
69323;SDS011;56470;47.350;8.718;2023-12-14T21:50:19;5.15;;;2.75;;
69323;SDS011;56470;47.350;8.718;2023-12-14T22:06:02;5.93;;;3.30;;
69323;SDS011;56470;47.350;8.718;2023-12-14T22:08:59;6.13;;;3.20;;
69323;SDS011;56470;47.350;8.718;2023-12-14T22:11:29;7.22;;;3.22;;